Time;durP1;ratioP1;P1;durP2;ratioP2;P2;SDS_P1;SDS_P2;PMS_P1;PMS_P2;Temp;Humidity;BMP_temperature;BMP_pressure;BME280_temperature;BME280_humidity;BME280_pressure;Samples;Min_cycle;Max_cycle;Signal;HPM_P1;HPM_P2
2021/12/22 00:01:05;;;;;;;;;;;-5.60;99.90;;;;;;4969605;28;19914;-77
2021/12/22 00:03:30;;;;;;;;;;;-5.70;99.90;;;;;;4972923;28;19918;-77
2021/12/22 00:05:56;;;;;;;;;;;-5.70;99.90;;;;;;4971993;28;20388;-77
2021/12/22 00:08:22;;;;;;;;;;;-5.70;99.90;;;;;;4967446;28;20276;-77
2021/12/22 00:10:49;;;;;;;;;;;-5.70;99.90;;;;;;4970526;28;19993;-77
2021/12/22 00:13:15;;;;;;;;;;;-5.60;99.90;;;;;;4975186;28;19942;-78
2021/12/22 00:15:40;;;;;;;;;;;-5.70;99.90;;;;;;4973094;28;19918;-78
2021/12/22 00:18:06;;;;;;;;;;;-5.70;99.90;;;;;;4990483;28;19961;-78
2021/12/22 00:20:32;;;;;;;;;;;-5.80;99.90;;;;;;4996007;28;19914;-78
2021/12/22 00:22:57;;;;;;;;;;;-5.80;99.90;;;;;;4983265;28;20136;-78
2021/12/22 00:25:25;;;;;;;;;;;-5.80;99.90;;;;;;4985522;28;19918;-78
2021/12/22 00:27:52;;;;;;;;;;;-5.90;99.90;;;;;;4973893;28;19918;-78
2021/12/22 00:30:18;;;;;;;;;;;-5.90;99.90;;;;;;4989292;28;19933;-78
2021/12/22 00:32:50;;;;;;;;;;;-6.00;99.90;;;;;;4974955;28;19914;-78
2021/12/22 00:35:18;;;;;;;;;;;-6.00;99.90;;;;;;4971072;28;19953;-78
2021/12/22 00:37:44;;;;;;;;;;;-6.00;99.90;;;;;;4976087;28;19918;-78
2021/12/22 00:40:10;;;;;;;;;;;-6.00;99.90;;;;;;4976073;28;19921;-78
2021/12/22 00:42:36;;;;;;;;;;;-6.00;99.90;;;;;;4978854;28;19987;-77
2021/12/22 00:45:02;;;;;;;;;;;-6.00;99.90;;;;;;4969420;28;19918;-77
2021/12/22 00:47:28;;;;;;;;;;;-5.90;99.90;;;;;;4971588;28;20410;-77
2021/12/22 00:49:54;;;;;;;;;;;-5.90;99.90;;;;;;4986529;28;19929;-77
2021/12/22 00:52:19;;;;;;;;;;;-5.90;99.90;;;;;;4988975;28;20529;-77
2021/12/22 00:54:45;;;;;;;;;;;-5.90;99.90;;;;;;4985643;28;19950;-77
2021/12/22 00:57:11;;;;;;;;;;;-5.90;99.90;;;;;;4968191;28;19914;-77
2021/12/22 00:59:37;;;;;;;;;;;-5.90;99.90;;;;;;4970975;28;20436;-77
2021/12/22 01:02:04;;;;;;;;;;;-6.00;99.90;;;;;;4973690;28;19915;-78
2021/12/22 01:04:30;;;;;;;;;;;-6.00;99.90;;;;;;4955813;28;19922;-77
2021/12/22 01:06:56;;;;;;;;;;;-6.00;99.90;;;;;;4972824;28;20106;-77
2021/12/22 01:09:21;;;;;;;;;;;-6.00;99.90;;;;;;4980747;28;19918;-77
2021/12/22 01:11:47;;;;;;;;;;;-6.00;99.90;;;;;;4974824;28;19918;-77
2021/12/22 01:14:13;;;;;;;;;;;-6.00;99.90;;;;;;4974300;28;20357;-77
2021/12/22 01:16:39;;;;;;;;;;;-6.00;99.90;;;;;;4977307;28;19953;-77
2021/12/22 01:19:11;;;;;;;;;;;-6.00;99.90;;;;;;4972374;28;19928;-77
2021/12/22 01:21:48;;;;;;;;;;;-6.10;99.90;;;;;;4968058;28;19918;-77
2021/12/22 01:24:33;;;;;;;;;;;-6.00;99.90;;;;;;4986121;28;19918;-77
2021/12/22 01:27:05;;;;;;;;;;;-5.90;99.90;;;;;;4972876;28;20013;-77
2021/12/22 01:29:31;;;;;;;;;;;-6.00;99.90;;;;;;4973324;28;19950;-77
2021/12/22 01:31:58;;;;;;;;;;;-6.00;99.90;;;;;;4973277;28;19914;-77
2021/12/22 01:34:27;;;;;;;;;;;-6.00;99.90;;;;;;4964019;28;20478;-77
2021/12/22 01:36:52;;;;;;;;;;;-6.10;99.90;;;;;;4985734;28;19924;-78
2021/12/22 01:39:18;;;;;;;;;;;-6.00;99.90;;;;;;4972373;28;20009;-77
2021/12/22 01:41:44;;;;;;;;;;;-6.00;99.90;;;;;;4956258;28;19960;-77
2021/12/22 01:44:10;;;;;;;;;;;-6.00;99.90;;;;;;4971876;28;19914;-77
2021/12/22 01:49:14;;;;;;;;;;;-6.00;99.90;;;;;;4972378;28;19914;-77
2021/12/22 01:51:44;;;;;;;;;;;-6.00;99.90;;;;;;4968707;28;19918;-77
2021/12/22 01:54:16;;;;;;;;;;;-6.10;99.90;;;;;;4970741;28;19921;-77
2021/12/22 01:56:43;;;;;;;;;;;-6.00;99.90;;;;;;4980504;28;19915;-77
2021/12/22 01:59:09;;;;;;;;;;;-6.00;99.90;;;;;;4988675;28;19926;-77
2021/12/22 02:01:35;;;;;;;;;;;-6.00;99.90;;;;;;4978898;28;19918;-77
2021/12/22 02:04:01;;;;;;;;;;;-6.10;99.90;;;;;;4972543;28;19921;-77
2021/12/22 02:06:27;;;;;;;;;;;-6.10;99.90;;;;;;4972303;28;19925;-77
2021/12/22 02:08:54;;;;;;;;;;;-6.10;99.90;;;;;;4976198;28;19986;-77
2021/12/22 02:11:20;;;;;;;;;;;-6.10;99.90;;;;;;4976217;28;20052;-77
2021/12/22 02:13:52;;;;;;;;;;;-6.10;99.90;;;;;;4989454;28;19918;-77
2021/12/22 02:16:25;;;;;;;;;;;-6.00;99.90;;;;;;4983140;28;20304;-77
2021/12/22 02:18:52;;;;;;;;;;;-6.10;99.90;;;;;;4988265;28;20328;-78
2021/12/22 02:21:19;;;;;;;;;;;-6.10;99.90;;;;;;4954374;28;19922;-77
2021/12/22 02:23:45;;;;;;;;;;;-6.00;99.90;;;;;;4986573;28;19949;-77
2021/12/22 02:26:16;;;;;;;;;;;-6.10;99.90;;;;;;4975727;28;19918;-77
2021/12/22 02:28:46;;;;;;;;;;;-6.10;99.90;;;;;;4970878;28;19978;-77
2021/12/22 02:31:13;;;;;;;;;;;-6.20;99.90;;;;;;4979178;28;19928;-77
2021/12/22 02:33:41;;;;;;;;;;;-6.20;99.90;;;;;;4990997;28;19925;-77
2021/12/22 02:36:11;;;;;;;;;;;-6.20;99.90;;;;;;4965522;28;20004;-77
2021/12/22 02:38:41;;;;;;;;;;;-6.30;99.90;;;;;;4969942;28;20446;-77
2021/12/22 02:41:09;;;;;;;;;;;-6.30;99.90;;;;;;4975862;28;19965;-77
2021/12/22 02:43:42;;;;;;;;;;;-6.30;99.90;;;;;;4972461;28;19914;-77
2021/12/22 02:46:08;;;;;;;;;;;-6.30;99.90;;;;;;4970467;28;19918;-77
2021/12/22 02:48:34;;;;;;;;;;;-6.30;99.90;;;;;;4979721;28;19971;-77
2021/12/22 02:51:00;;;;;;;;;;;-6.40;99.90;;;;;;4976443;28;19980;-77
2021/12/22 02:53:37;;;;;;;;;;;-6.40;99.90;;;;;;4976288;28;19914;-77
2021/12/22 02:56:14;;;;;;;;;;;-6.40;99.90;;;;;;4988871;28;19996;-77
2021/12/22 02:58:56;;;;;;;;;;;-6.40;99.90;;;;;;4978187;28;20003;-77
2021/12/22 03:04:05;;;;;;;;;;;-6.40;99.90;;;;;;4974191;28;19921;-77
2021/12/22 03:06:38;;;;;;;;;;;-6.50;99.90;;;;;;4971091;28;19914;-77
2021/12/22 03:09:17;;;;;;;;;;;-6.50;99.90;;;;;;4966427;28;19915;-77
2021/12/22 03:11:43;;;;;;;;;;;-6.60;99.90;;;;;;4951950;28;19965;-77
2021/12/22 03:14:09;;;;;;;;;;;-6.50;99.90;;;;;;4974243;28;19945;-77
2021/12/22 03:16:34;;;;;;;;;;;-6.60;99.90;;;;;;4981711;28;19981;-77
2021/12/22 03:19:00;;;;;;;;;;;-6.60;99.90;;;;;;4972966;28;19918;-77
2021/12/22 03:21:26;;;;;;;;;;;-6.60;99.90;;;;;;4974023;28;19918;-77
2021/12/22 03:23:53;;;;;;;;;;;-6.60;99.90;;;;;;4971815;28;20946;-77
2021/12/22 03:26:21;;;;;;;;;;;-6.60;99.90;;;;;;4969624;28;19922;-77
2021/12/22 03:28:47;;;;;;;;;;;-6.60;99.90;;;;;;4973864;28;19926;-77
2021/12/22 03:31:14;;;;;;;;;;;-6.60;99.90;;;;;;4973742;28;19918;-77
2021/12/22 03:33:40;;;;;;;;;;;-6.60;99.90;;;;;;4973748;28;20297;-77
2021/12/22 03:36:06;;;;;;;;;;;-6.60;99.90;;;;;;4972288;28;19918;-77
2021/12/22 03:38:32;;;;;;;;;;;-6.60;99.90;;;;;;4979762;28;19921;-77
2021/12/22 03:40:59;;;;;;;;;;;-6.60;99.90;;;;;;4980094;28;20470;-77
2021/12/22 03:43:24;;;;;;;;;;;-6.60;99.90;;;;;;4978840;28;19961;-77
2021/12/22 03:45:50;;;;;;;;;;;-6.70;99.90;;;;;;4971327;28;19960;-77
2021/12/22 03:48:17;;;;;;;;;;;-6.70;99.90;;;;;;4973375;28;19918;-77
2021/12/22 03:50:43;;;;;;;;;;;-6.70;99.90;;;;;;4973435;28;20300;-77
2021/12/22 03:53:09;;;;;;;;;;;-6.70;99.90;;;;;;4973301;28;19925;-77
2021/12/22 03:55:34;;;;;;;;;;;-6.70;99.90;;;;;;4964382;28;19915;-77
2021/12/22 03:58:00;;;;;;;;;;;-6.80;99.90;;;;;;4975409;28;19919;-77
2021/12/22 04:00:25;;;;;;;;;;;-6.70;99.90;;;;;;4963552;28;19915;-77
2021/12/22 04:02:51;;;;;;;;;;;-6.70;99.90;;;;;;4970710;28;19914;-77
2021/12/22 04:05:18;;;;;;;;;;;-6.80;99.90;;;;;;4970276;28;19921;-77
2021/12/22 04:07:44;;;;;;;;;;;-6.80;99.90;;;;;;4970858;28;19965;-77
2021/12/22 04:10:31;;;;;;;;;;;-6.80;99.90;;;;;;4966557;28;19925;-77
2021/12/22 04:12:56;;;;;;;;;;;-6.80;99.90;;;;;;4978044;28;19946;-77
2021/12/22 04:15:23;;;;;;;;;;;-6.80;99.90;;;;;;4972374;28;20407;-77
2021/12/22 04:17:49;;;;;;;;;;;-6.80;99.90;;;;;;4967867;28;19925;-76
2021/12/22 04:20:15;;;;;;;;;;;-6.80;99.90;;;;;;4973193;28;19918;-77
2021/12/22 04:22:40;;;;;;;;;;;-6.80;99.90;;;;;;4970408;28;19921;-77
2021/12/22 04:25:07;;;;;;;;;;;-6.80;99.90;;;;;;4971616;28;19957;-77
2021/12/22 04:27:33;;;;;;;;;;;-6.80;99.90;;;;;;4971885;28;20398;-77
2021/12/22 04:29:59;;;;;;;;;;;-6.80;99.90;;;;;;4979719;28;19981;-76
2021/12/22 04:32:24;;;;;;;;;;;-6.90;99.90;;;;;;4987607;28;20021;-77
2021/12/22 04:34:50;;;;;;;;;;;-6.90;99.90;;;;;;4981785;28;19958;-77
2021/12/22 04:37:16;;;;;;;;;;;-6.90;99.90;;;;;;4938980;28;19918;-77
2021/12/22 04:39:41;;;;;;;;;;;-7.00;99.90;;;;;;4972329;28;20023;-77
2021/12/22 04:42:07;;;;;;;;;;;-6.90;99.90;;;;;;4987431;28;20383;-76
2021/12/22 04:44:33;;;;;;;;;;;-6.90;99.90;;;;;;4984652;28;19914;-77
2021/12/22 04:46:59;;;;;;;;;;;-6.90;99.90;;;;;;4971593;28;19973;-77
2021/12/22 04:49:25;;;;;;;;;;;-6.90;99.90;;;;;;4938890;28;19918;-76
2021/12/22 04:51:53;;;;;;;;;;;-6.80;99.90;;;;;;4995393;28;20398;-77
2021/12/22 04:56:54;;;;;;;;;;;-6.90;99.90;;;;;;4969842;28;19980;-77
2021/12/22 04:59:19;;;;;;;;;;;-7.00;99.90;;;;;;4964606;28;20396;-76
2021/12/22 05:01:45;;;;;;;;;;;-7.00;99.90;;;;;;4972160;28;19914;-77
2021/12/22 05:04:10;;;;;;;;;;;-7.00;99.90;;;;;;4970909;28;19914;-76
2021/12/22 05:06:36;;;;;;;;;;;-7.00;99.90;;;;;;4967669;28;20297;-77
2021/12/22 05:09:03;;;;;;;;;;;-7.00;99.90;;;;;;4986547;28;19972;-77
2021/12/22 05:11:28;;;;;;;;;;;-7.00;99.90;;;;;;4986729;28;20012;-77
2021/12/22 05:13:54;;;;;;;;;;;-7.00;99.90;;;;;;4953512;28;20013;-77
2021/12/22 05:16:19;;;;;;;;;;;-7.00;99.90;;;;;;4985154;28;19918;-77
2021/12/22 05:21:14;;;;;;;;;;;-7.00;99.90;;;;;;4971903;28;19914;-77
2021/12/22 05:23:40;;;;;;;;;;;-7.00;99.90;;;;;;4966707;28;20398;-76
2021/12/22 05:26:05;;;;;;;;;;;-7.00;99.90;;;;;;4965061;28;19945;-77
2021/12/22 05:28:31;;;;;;;;;;;-7.00;99.90;;;;;;4987903;28;20396;-76
2021/12/22 05:30:56;;;;;;;;;;;-7.00;99.90;;;;;;4984431;28;19922;-77
2021/12/22 05:33:22;;;;;;;;;;;-7.00;99.90;;;;;;4954150;28;20496;-76
2021/12/22 05:35:48;;;;;;;;;;;-7.00;99.90;;;;;;4939402;28;19918;-77
2021/12/22 05:38:13;;;;;;;;;;;-7.10;99.90;;;;;;4990612;28;19921;-77
2021/12/22 05:40:39;;;;;;;;;;;-7.10;99.90;;;;;;4975122;28;19914;-77
2021/12/22 05:43:04;;;;;;;;;;;-7.10;99.90;;;;;;4976278;28;20009;-77
2021/12/22 05:45:30;;;;;;;;;;;-7.10;99.90;;;;;;4940983;28;20029;-77
2021/12/22 05:47:56;;;;;;;;;;;-7.10;99.90;;;;;;4967182;28;19919;-77
2021/12/22 05:50:22;;;;;;;;;;;-7.10;99.90;;;;;;4979327;28;19918;-77
2021/12/22 05:52:48;;;;;;;;;;;-7.10;99.90;;;;;;4977761;28;19918;-77
2021/12/22 05:55:14;;;;;;;;;;;-7.10;99.90;;;;;;4978682;28;19937;-77
2021/12/22 05:57:40;;;;;;;;;;;-7.10;99.90;;;;;;4980271;28;20499;-77
2021/12/22 06:00:06;;;;;;;;;;;-7.20;99.90;;;;;;4970080;28;19918;-78
2021/12/22 06:02:39;;;;;;;;;;;-7.10;99.90;;;;;;4970681;28;20005;-77
2021/12/22 06:05:05;;;;;;;;;;;-7.20;99.90;;;;;;4971683;28;20547;-77
2021/12/22 06:07:30;;;;;;;;;;;-7.20;99.90;;;;;;4974290;28;19913;-77
2021/12/22 06:09:56;;;;;;;;;;;-7.20;99.90;;;;;;4974710;28;19918;-77
2021/12/22 06:12:21;;;;;;;;;;;-7.20;99.90;;;;;;4989974;28;19914;-77
2021/12/22 06:14:47;;;;;;;;;;;-7.20;99.90;;;;;;4972038;28;19925;-77
2021/12/22 06:17:13;;;;;;;;;;;-7.20;99.90;;;;;;4938066;29;20642;-77
2021/12/22 06:19:39;;;;;;;;;;;-7.10;99.90;;;;;;4977863;28;20407;-77
2021/12/22 06:22:04;;;;;;;;;;;-7.10;99.90;;;;;;4957547;28;19922;-77
2021/12/22 06:24:30;;;;;;;;;;;-7.10;99.90;;;;;;4974776;28;19921;-77
2021/12/22 06:26:57;;;;;;;;;;;-7.20;99.90;;;;;;4977726;28;20000;-77
2021/12/22 06:29:23;;;;;;;;;;;-7.20;99.90;;;;;;4974391;28;20332;-77
2021/12/22 06:31:49;;;;;;;;;;;-7.30;99.90;;;;;;4973386;28;19941;-77
2021/12/22 06:34:14;;;;;;;;;;;-7.30;99.90;;;;;;4973424;28;20384;-77
2021/12/22 06:36:40;;;;;;;;;;;-7.30;99.90;;;;;;4974024;28;20060;-77
2021/12/22 06:39:06;;;;;;;;;;;-7.30;99.90;;;;;;4970062;28;20340;-77
2021/12/22 06:41:32;;;;;;;;;;;-7.40;99.90;;;;;;4974596;28;19921;-77
2021/12/22 06:43:57;;;;;;;;;;;-7.30;99.90;;;;;;4952171;28;19926;-77
2021/12/22 06:46:23;;;;;;;;;;;-7.30;99.90;;;;;;4971644;28;19920;-77
2021/12/22 06:48:49;;;;;;;;;;;-7.30;99.90;;;;;;4971304;28;20318;-77
2021/12/22 06:51:14;;;;;;;;;;;-7.30;99.90;;;;;;4979449;28;19923;-77
2021/12/22 06:53:40;;;;;;;;;;;-7.30;99.90;;;;;;4976185;28;20511;-77
2021/12/22 06:56:05;;;;;;;;;;;-7.30;99.90;;;;;;4972003;28;19918;-76
2021/12/22 06:58:31;;;;;;;;;;;-7.30;99.90;;;;;;4999808;28;19914;-77
2021/12/22 07:00:57;;;;;;;;;;;-7.30;99.90;;;;;;4987831;28;20369;-77
2021/12/22 07:03:22;;;;;;;;;;;-7.20;99.90;;;;;;4974562;28;20584;-76
2021/12/22 07:05:48;;;;;;;;;;;-7.30;99.90;;;;;;4973441;28;20014;-77
2021/12/22 07:08:13;;;;;;;;;;;-7.20;99.90;;;;;;4972522;28;19918;-77
2021/12/22 07:10:39;;;;;;;;;;;-7.20;99.90;;;;;;4967585;28;19930;-77
2021/12/22 07:13:06;;;;;;;;;;;-7.20;99.90;;;;;;4986951;28;20336;-77
2021/12/22 07:15:32;;;;;;;;;;;-7.10;99.90;;;;;;4977350;28;19971;-77
2021/12/22 07:17:58;;;;;;;;;;;-7.10;99.90;;;;;;4981449;28;19926;-77
2021/12/22 07:20:23;;;;;;;;;;;-7.10;99.90;;;;;;4996003;28;20427;-77
2021/12/22 07:22:49;;;;;;;;;;;-7.10;99.90;;;;;;4980025;28;19925;-77
2021/12/22 07:25:18;;;;;;;;;;;-7.10;99.90;;;;;;4991961;28;20381;-77
2021/12/22 07:27:44;;;;;;;;;;;-7.10;99.90;;;;;;4955729;28;20005;-77
2021/12/22 07:30:10;;;;;;;;;;;-7.10;99.90;;;;;;4988519;28;20020;-77
2021/12/22 07:32:36;;;;;;;;;;;-7.20;99.90;;;;;;4967234;28;20022;-77
2021/12/22 07:35:20;;;;;;;;;;;-7.10;99.90;;;;;;4970284;28;19915;-77
2021/12/22 07:37:47;;;;;;;;;;;-7.10;99.90;;;;;;4964801;28;19914;-77
2021/12/22 07:40:14;;;;;;;;;;;-7.10;99.90;;;;;;4974765;28;20018;-77
2021/12/22 07:42:40;;;;;;;;;;;-7.10;99.90;;;;;;4973238;28;20021;-77
2021/12/22 07:45:06;;;;;;;;;;;-7.10;99.90;;;;;;4973126;28;19921;-77
2021/12/22 07:47:32;;;;;;;;;;;-7.10;99.90;;;;;;4950205;28;19922;-77
2021/12/22 07:49:57;;;;;;;;;;;-7.10;99.90;;;;;;4972335;28;19925;-77
2021/12/22 07:52:27;;;;;;;;;;;-7.00;99.90;;;;;;4987707;28;19941;-77
2021/12/22 07:54:54;;;;;;;;;;;-7.00;99.90;;;;;;4986903;28;20017;-77
2021/12/22 07:57:19;;;;;;;;;;;-7.00;99.90;;;;;;4965639;28;19918;-76
2021/12/22 07:59:45;;;;;;;;;;;-7.00;99.90;;;;;;4949723;28;63347;-76
2021/12/22 08:02:12;;;;;;;;;;;-7.00;99.90;;;;;;4945980;28;19918;-77
2021/12/22 08:04:38;;;;;;;;;;;-7.00;99.90;;;;;;4959128;28;19929;-77
2021/12/22 08:07:04;;;;;;;;;;;-6.90;99.90;;;;;;4961837;28;19914;-76
2021/12/22 08:09:29;;;;;;;;;;;-6.90;99.90;;;;;;4963455;28;19918;-76
2021/12/22 08:11:56;;;;;;;;;;;-6.80;99.90;;;;;;4952890;28;19922;-76
2021/12/22 08:14:23;;;;;;;;;;;-6.70;99.90;;;;;;4952409;28;20447;-77
2021/12/22 08:16:50;;;;;;;;;;;-6.70;99.90;;;;;;4947946;28;19918;-77
2021/12/22 08:19:15;;;;;;;;;;;-6.60;99.90;;;;;;4960788;28;20003;-77
2021/12/22 08:21:41;;;;;;;;;;;-6.60;99.90;;;;;;4949595;28;19919;-77
2021/12/22 08:24:06;;;;;;;;;;;-6.50;99.90;;;;;;4962154;28;20389;-77
2021/12/22 08:26:33;;;;;;;;;;;-6.40;99.90;;;;;;4978453;28;20300;-77
2021/12/22 08:28:59;;;;;;;;;;;-6.30;99.90;;;;;;4968278;28;19922;-77
2021/12/22 08:31:25;;;;;;;;;;;-6.30;99.90;;;;;;4976653;28;20340;-77
2021/12/22 08:33:53;;;;;;;;;;;-6.20;99.90;;;;;;4973712;28;19965;-77
2021/12/22 08:39:05;;;;;;;;;;;-5.90;99.90;;;;;;4955032;28;19914;-77
2021/12/22 08:41:31;;;;;;;;;;;-5.90;99.90;;;;;;4947902;28;19957;-77
2021/12/22 08:43:58;;;;;;;;;;;-5.80;99.90;;;;;;4972072;28;19918;-77
2021/12/22 08:46:24;;;;;;;;;;;-5.80;99.90;;;;;;4967691;28;20053;-77
2021/12/22 08:48:50;;;;;;;;;;;-5.70;99.90;;;;;;4951538;28;20384;-77
2021/12/22 08:51:16;;;;;;;;;;;-5.70;99.90;;;;;;4976874;28;19930;-77
2021/12/22 08:53:42;;;;;;;;;;;-5.60;99.90;;;;;;4955514;28;19922;-77
2021/12/22 08:56:07;;;;;;;;;;;-5.60;99.90;;;;;;4973027;28;20001;-77
2021/12/22 08:58:33;;;;;;;;;;;-5.60;99.90;;;;;;4961932;28;19918;-78
2021/12/22 09:00:59;;;;;;;;;;;-5.60;99.90;;;;;;4967290;28;19923;-78
2021/12/22 09:03:24;;;;;;;;;;;-5.50;99.90;;;;;;4966751;28;19926;-78
2021/12/22 09:05:50;;;;;;;;;;;-5.50;99.90;;;;;;4950519;28;20304;-78
2021/12/22 09:08:15;;;;;;;;;;;-5.50;99.90;;;;;;4972994;28;19957;-78
2021/12/22 09:10:41;;;;;;;;;;;-5.40;99.90;;;;;;4953469;28;19998;-78
2021/12/22 09:13:07;;;;;;;;;;;-5.40;99.90;;;;;;4954604;29;20001;-78
2021/12/22 09:15:33;;;;;;;;;;;-5.30;99.90;;;;;;4954128;28;19914;-78
2021/12/22 09:17:58;;;;;;;;;;;-5.20;99.90;;;;;;4968367;28;20007;-78
2021/12/22 09:20:24;;;;;;;;;;;-5.10;99.90;;;;;;4970990;28;19965;-77
2021/12/22 09:22:50;;;;;;;;;;;-5.00;99.90;;;;;;4960446;28;20411;-78
2021/12/22 09:25:15;;;;;;;;;;;-5.00;99.90;;;;;;4958838;28;19929;-78
2021/12/22 09:27:41;;;;;;;;;;;-4.90;99.90;;;;;;4950234;28;19966;-78
2021/12/22 09:30:08;;;;;;;;;;;-4.80;99.90;;;;;;4953293;29;19925;-78
2021/12/22 09:32:33;;;;;;;;;;;-4.70;99.90;;;;;;4953969;28;20001;-78
2021/12/22 09:34:59;;;;;;;;;;;-4.70;99.90;;;;;;4953530;28;19993;-78
2021/12/22 09:37:24;;;;;;;;;;;-4.60;99.90;;;;;;4968166;28;19965;-78
2021/12/22 09:39:50;;;;;;;;;;;-4.60;99.90;;;;;;4965058;28;19964;-78
2021/12/22 09:42:16;;;;;;;;;;;-4.50;99.90;;;;;;4951558;29;19914;-78
2021/12/22 09:44:46;;;;;;;;;;;-4.40;99.90;;;;;;4964055;28;19922;-78
2021/12/22 09:47:13;;;;;;;;;;;-4.20;99.90;;;;;;4951280;28;19965;-78
2021/12/22 09:52:19;;;;;;;;;;;-3.90;99.90;;;;;;4968092;28;20475;-78
2021/12/22 09:54:48;;;;;;;;;;;-3.90;99.90;;;;;;4947664;29;20046;-78
2021/12/22 09:57:17;;;;;;;;;;;-3.80;99.90;;;;;;4957811;28;20013;-78
2021/12/22 09:59:43;;;;;;;;;;;-3.80;99.90;;;;;;4951610;29;19997;-78
2021/12/22 10:02:09;;;;;;;;;;;-3.70;99.90;;;;;;4951920;29;19923;-78
2021/12/22 10:04:35;;;;;;;;;;;-3.60;99.90;;;;;;4968266;28;20494;-78
2021/12/22 10:07:01;;;;;;;;;;;-3.60;99.90;;;;;;4959906;28;20373;-78
2021/12/22 10:09:26;;;;;;;;;;;-3.50;99.90;;;;;;4963842;28;19915;-77
2021/12/22 10:11:52;;;;;;;;;;;-3.40;99.90;;;;;;4968368;28;20025;-77
2021/12/22 10:14:19;;;;;;;;;;;-3.30;99.90;;;;;;4970345;28;19915;-78
2021/12/22 10:16:46;;;;;;;;;;;-3.00;99.90;;;;;;4955583;28;19957;-78
2021/12/22 10:19:12;;;;;;;;;;;-2.80;99.90;;;;;;4971640;28;20450;-77
2021/12/22 10:21:50;;;;;;;;;;;-2.80;99.90;;;;;;4972287;28;20009;-78
2021/12/22 10:24:15;;;;;;;;;;;-2.70;99.90;;;;;;4971928;28;19919;-77
2021/12/22 10:26:41;;;;;;;;;;;-2.60;99.90;;;;;;4966195;28;20364;-77
2021/12/22 10:29:07;;;;;;;;;;;-2.60;99.90;;;;;;4956471;28;19914;-78
2021/12/22 10:31:35;;;;;;;;;;;-2.50;99.90;;;;;;4956624;28;19923;-78
2021/12/22 10:34:09;;;;;;;;;;;-2.40;99.90;;;;;;4975675;28;20564;-78
2021/12/22 10:36:51;;;;;;;;;;;-2.40;99.90;;;;;;4977685;28;20478;-78
2021/12/22 10:39:21;;;;;;;;;;;-2.30;99.90;;;;;;4963420;28;19933;-78
2021/12/22 10:41:47;;;;;;;;;;;-2.30;99.90;;;;;;4942920;29;19915;-78
2021/12/22 10:44:13;;;;;;;;;;;-2.30;99.90;;;;;;4970257;28;19919;-78
2021/12/22 10:46:38;;;;;;;;;;;-2.20;99.90;;;;;;4956173;28;19986;-78
2021/12/22 10:49:17;;;;;;;;;;;-2.20;99.90;;;;;;4973921;28;19925;-78
2021/12/22 10:51:47;;;;;;;;;;;-2.20;99.90;;;;;;4955730;28;19922;-78
2021/12/22 10:54:14;;;;;;;;;;;-2.30;99.90;;;;;;4964495;28;19919;-79
2021/12/22 10:56:41;;;;;;;;;;;-2.30;99.90;;;;;;4970832;28;19981;-79
2021/12/22 10:59:09;;;;;;;;;;;-2.30;99.90;;;;;;4955852;28;19914;-78
2021/12/22 11:01:36;;;;;;;;;;;-2.20;99.90;;;;;;4958315;28;19981;-78
2021/12/22 11:04:06;;;;;;;;;;;-2.10;99.90;;;;;;4978311;28;19973;-78
2021/12/22 11:06:33;;;;;;;;;;;-2.10;99.90;;;;;;4968342;28;19955;-79
2021/12/22 11:08:59;;;;;;;;;;;-2.10;99.90;;;;;;4962612;28;20281;-79
2021/12/22 11:11:29;;;;;;;;;;;-2.00;99.90;;;;;;4968157;28;19922;-78
2021/12/22 11:14:24;;;;;;;;;;;-1.90;99.90;;;;;;4967338;28;20432;-79
2021/12/22 11:17:15;;;;;;;;;;;-1.90;99.90;;;;;;4950438;28;19977;-78
2021/12/22 11:19:44;;;;;;;;;;;-1.90;99.90;;;;;;4965339;28;19919;-78
2021/12/22 11:22:14;;;;;;;;;;;-1.80;99.90;;;;;;4956841;28;19915;-78
2021/12/22 11:24:46;;;;;;;;;;;-1.70;99.90;;;;;;4971819;28;20011;-79
2021/12/22 11:27:26;;;;;;;;;;;-1.60;99.90;;;;;;4953894;28;19973;-78
2021/12/22 11:29:55;;;;;;;;;;;-1.50;99.90;;;;;;4955367;28;19923;-79
2021/12/22 11:32:22;;;;;;;;;;;-1.40;99.90;;;;;;4956997;29;19914;-78
2021/12/22 11:34:50;;;;;;;;;;;-1.40;99.90;;;;;;4957126;29;19921;-78
2021/12/22 11:37:16;;;;;;;;;;;-1.40;99.90;;;;;;4955667;28;20017;-78
2021/12/22 11:39:41;;;;;;;;;;;-1.40;99.90;;;;;;4971615;28;19984;-78
2021/12/22 11:42:08;;;;;;;;;;;-1.30;99.90;;;;;;4964642;28;20420;-78
2021/12/22 11:44:36;;;;;;;;;;;-1.30;99.90;;;;;;4955231;28;19953;-78
2021/12/22 11:47:07;;;;;;;;;;;-1.30;99.90;;;;;;4953261;28;19922;-78
2021/12/22 11:49:37;;;;;;;;;;;-1.30;99.90;;;;;;4938578;29;20304;-78
2021/12/22 11:52:23;;;;;;;;;;;-1.20;99.90;;;;;;4955988;28;19922;-79
2021/12/22 11:55:04;;;;;;;;;;;-1.20;99.90;;;;;;4971147;28;19997;-79
2021/12/22 11:57:30;;;;;;;;;;;-1.00;99.90;;;;;;4954955;28;19937;-78
2021/12/22 11:59:55;;;;;;;;;;;-1.00;99.90;;;;;;4971063;28;20369;-78
2021/12/22 12:02:34;;;;;;;;;;;-1.00;99.90;;;;;;4956402;28;19925;-78
2021/12/22 12:05:14;;;;;;;;;;;-1.00;99.90;;;;;;4955130;28;19942;-78
2021/12/22 12:07:49;;;;;;;;;;;-0.90;99.90;;;;;;4952027;28;19926;-78
2021/12/22 12:10:35;;;;;;;;;;;-0.90;99.90;;;;;;4958793;28;19922;-78
2021/12/22 12:13:07;;;;;;;;;;;-1.00;99.90;;;;;;4954533;28;20389;-78
2021/12/22 12:15:59;;;;;;;;;;;-0.90;99.90;;;;;;4968650;28;19919;-79
2021/12/22 12:21:47;;;;;;;;;;;-0.80;99.90;;;;;;4954725;29;20021;-78
2021/12/22 12:24:37;;;;;;;;;;;-0.80;99.90;;;;;;4973647;28;20364;-79
2021/12/22 12:27:22;;;;;;;;;;;-0.90;99.90;;;;;;4947987;28;20010;-78
2021/12/22 12:29:50;;;;;;;;;;;-0.90;99.90;;;;;;4958507;28;19914;-78
2021/12/22 12:32:42;;;;;;;;;;;-0.80;99.90;;;;;;4969759;28;19914;-79
2021/12/22 12:35:28;;;;;;;;;;;-0.80;99.90;;;;;;4953420;28;19994;-79
2021/12/22 12:38:08;;;;;;;;;;;-0.80;99.90;;;;;;4947945;28;19927;-79
2021/12/22 12:40:52;;;;;;;;;;;-0.80;99.90;;;;;;4955282;28;19918;-79
2021/12/22 12:43:18;;;;;;;;;;;-0.80;99.90;;;;;;4974087;28;19921;-79
2021/12/22 12:45:45;;;;;;;;;;;-0.70;99.90;;;;;;4965200;28;19919;-79
2021/12/22 12:48:27;;;;;;;;;;;-0.60;99.90;;;;;;4967043;28;19919;-78
2021/12/22 12:51:12;;;;;;;;;;;-0.60;99.90;;;;;;4964739;28;19923;-79
2021/12/22 12:53:42;;;;;;;;;;;-0.60;99.90;;;;;;4950966;29;20500;-79
2021/12/22 12:56:09;;;;;;;;;;;-0.50;99.90;;;;;;4970288;28;19915;-79
2021/12/22 12:58:34;;;;;;;;;;;-0.60;99.90;;;;;;4956391;28;19925;-79
2021/12/22 13:01:00;;;;;;;;;;;-0.50;99.90;;;;;;4940881;28;19918;-79
2021/12/22 13:03:26;;;;;;;;;;;-0.50;99.90;;;;;;4977583;28;19926;-79
2021/12/22 13:05:51;;;;;;;;;;;-0.60;99.90;;;;;;4957364;28;19921;-79
2021/12/22 13:08:17;;;;;;;;;;;-0.60;99.90;;;;;;4958386;28;19949;-79
2021/12/22 13:10:50;;;;;;;;;;;-0.60;99.90;;;;;;4956373;28;19922;-79
2021/12/22 13:13:18;;;;;;;;;;;-0.60;99.90;;;;;;4978494;28;20352;-79
2021/12/22 13:15:46;;;;;;;;;;;-0.50;99.90;;;;;;4956485;28;19974;-79
2021/12/22 13:18:14;;;;;;;;;;;-0.60;99.90;;;;;;4962427;28;20376;-79
2021/12/22 13:20:41;;;;;;;;;;;-0.50;99.90;;;;;;4958937;28;19942;-79
2021/12/22 13:23:09;;;;;;;;;;;-0.60;99.90;;;;;;4975680;28;19922;-79
2021/12/22 13:25:39;;;;;;;;;;;-0.60;99.90;;;;;;4953013;28;20369;-79
2021/12/22 13:28:06;;;;;;;;;;;-0.50;99.90;;;;;;4956314;28;19933;-79
2021/12/22 13:30:36;;;;;;;;;;;-0.50;99.90;;;;;;4952006;29;19973;-78
2021/12/22 13:33:05;;;;;;;;;;;-0.50;99.90;;;;;;4956304;28;19914;-78
2021/12/22 13:35:30;;;;;;;;;;;-0.50;99.90;;;;;;4952705;28;20376;-79
2021/12/22 13:37:56;;;;;;;;;;;-0.50;99.90;;;;;;4955169;28;19921;-78
2021/12/22 13:40:34;;;;;;;;;;;-0.50;99.90;;;;;;4953318;28;19953;-78
2021/12/22 13:42:59;;;;;;;;;;;-0.50;99.90;;;;;;4954078;28;20631;-79
2021/12/22 13:45:25;;;;;;;;;;;-0.60;99.90;;;;;;4953771;28;19925;-79
2021/12/22 13:47:50;;;;;;;;;;;-0.60;99.90;;;;;;4951289;28;19914;-79
2021/12/22 13:50:16;;;;;;;;;;;-0.60;99.90;;;;;;4984951;28;20439;-79
2021/12/22 13:52:42;;;;;;;;;;;-0.60;99.90;;;;;;4963434;28;19914;-79
2021/12/22 13:55:07;;;;;;;;;;;-0.50;99.90;;;;;;4972622;28;19919;-79
2021/12/22 13:57:33;;;;;;;;;;;-0.50;99.90;;;;;;4956692;28;19922;-79
2021/12/22 13:59:59;;;;;;;;;;;-0.50;99.90;;;;;;4964467;28;19918;-79
2021/12/22 14:02:35;;;;;;;;;;;-0.50;99.90;;;;;;4960849;28;19921;-79
2021/12/22 14:05:17;;;;;;;;;;;-0.60;99.90;;;;;;4955294;28;19915;-79
2021/12/22 14:07:43;;;;;;;;;;;-0.60;99.90;;;;;;4957713;28;19966;-80
2021/12/22 14:10:11;;;;;;;;;;;-0.70;99.90;;;;;;4974879;28;20028;-80
2021/12/22 14:12:38;;;;;;;;;;;-0.80;99.90;;;;;;4975029;28;19937;-81
2021/12/22 14:15:03;;;;;;;;;;;-0.80;99.90;;;;;;4959328;28;20363;-80
2021/12/22 14:17:34;;;;;;;;;;;-0.80;99.90;;;;;;4956756;28;19923;-81
2021/12/22 14:20:03;;;;;;;;;;;-0.80;99.90;;;;;;4972886;28;19950;-81
2021/12/22 14:22:33;;;;;;;;;;;-0.70;99.90;;;;;;4970265;28;20400;-81
2021/12/22 14:25:01;;;;;;;;;;;-0.70;99.90;;;;;;4954242;29;20016;-81
2021/12/22 14:27:30;;;;;;;;;;;-0.60;99.90;;;;;;4951701;28;19946;-80
2021/12/22 14:29:58;;;;;;;;;;;-0.70;99.90;;;;;;4969977;28;19969;-79
2021/12/22 14:32:24;;;;;;;;;;;-0.70;99.90;;;;;;4970616;28;19915;-80
2021/12/22 14:34:57;;;;;;;;;;;-0.70;99.90;;;;;;4969633;28;19962;-80
2021/12/22 14:37:29;;;;;;;;;;;-0.70;99.90;;;;;;4965048;28;19923;-81
2021/12/22 14:39:55;;;;;;;;;;;-0.70;99.90;;;;;;4938072;29;20308;-80